sensor_id;sensor_type;location;lat;lon;timestamp;pressure;altitude;pressure_sealevel;temperature;humidity
37860;BME280;23698;52.014;5.190;2023-05-09T05:00:25;101328.06;;;16.24;100.00
37860;BME280;23698;52.014;5.190;2023-05-09T05:03:12;101322.72;;;16.43;100.00
37860;BME280;23698;52.014;5.190;2023-05-09T05:05:58;101321.59;;;16.12;100.00
37860;BME280;23698;52.014;5.190;2023-05-09T05:08:44;101321.84;;;16.04;100.00
37860;BME280;23698;52.014;5.190;2023-05-09T05:11:31;101315.47;;;16.23;100.00
37860;BME280;23698;52.014;5.190;2023-05-09T05:14:20;101318.81;;;16.26;100.00
37860;BME280;23698;52.014;5.190;2023-05-09T05:23:37;101302.66;;;16.17;100.00
37860;BME280;23698;52.014;5.190;2023-05-09T05:26:23;101303.84;;;16.28;100.00
37860;BME280;23698;52.014;5.190;2023-05-09T05:29:11;101301.22;;;16.85;100.00
37860;BME280;23698;52.014;5.190;2023-05-09T05:31:58;101291.69;;;16.88;100.00
37860;BME280;23698;52.014;5.190;2023-05-09T05:34:44;101294.69;;;16.79;100.00
37860;BME280;23698;52.014;5.190;2023-05-09T05:37:31;101290.09;;;17.05;100.00
37860;BME280;23698;52.014;5.190;2023-05-09T05:40:20;101285.00;;;16.84;100.00
37860;BME280;23698;52.014;5.190;2023-05-09T05:43:08;101283.66;;;17.18;100.00
37860;BME280;23698;52.014;5.190;2023-05-09T05:45:56;101293.41;;;16.82;100.00
37860;BME280;23698;52.014;5.190;2023-05-09T05:48:44;101285.78;;;16.59;100.00
37860;BME280;23698;52.014;5.190;2023-05-09T05:51:31;101281.50;;;16.70;100.00
37860;BME280;23698;52.014;5.190;2023-05-09T05:54:18;101273.66;;;16.48;100.00
37860;BME280;23698;52.014;5.190;2023-05-09T05:57:06;101273.13;;;16.33;100.00
37860;BME280;23698;52.014;5.190;2023-05-09T05:59:53;101269.94;;;16.68;100.00
37860;BME280;23698;52.014;5.190;2023-05-09T06:02:41;101266.44;;;16.54;100.00
37860;BME280;23698;52.014;5.190;2023-05-09T06:05:35;101264.72;;;16.59;100.00
37860;BME280;23698;52.014;5.190;2023-05-09T06:08:23;101264.09;;;16.57;100.00
37860;BME280;23698;52.014;5.190;2023-05-09T06:11:10;101255.22;;;16.94;100.00
37860;BME280;23698;52.014;5.190;2023-05-09T06:13:57;101255.75;;;16.77;100.00
37860;BME280;23698;52.014;5.190;2023-05-09T06:16:44;101259.25;;;16.59;100.00
37860;BME280;23698;52.014;5.190;2023-05-09T06:19:32;101240.25;;;16.39;100.00
37860;BME280;23698;52.014;5.190;2023-05-09T06:22:18;101249.28;;;16.40;100.00
37860;BME280;23698;52.014;5.190;2023-05-09T06:25:05;101242.88;;;16.21;100.00
37860;BME280;23698;52.014;5.190;2023-05-09T06:27:54;101242.22;;;16.57;100.00
37860;BME280;23698;52.014;5.190;2023-05-09T06:30:42;101241.94;;;16.66;100.00
37860;BME280;23698;52.014;5.190;2023-05-09T06:33:28;101239.56;;;17.01;100.00
37860;BME280;23698;52.014;5.190;2023-05-09T06:36:14;101235.06;;;16.88;100.00
37860;BME280;23698;52.014;5.190;2023-05-09T06:39:01;101243.34;;;16.75;100.00
37860;BME280;23698;52.014;5.190;2023-05-09T06:41:47;101231.47;;;16.56;100.00
37860;BME280;23698;52.014;5.190;2023-05-09T06:44:41;101231.53;;;16.49;100.00
37860;BME280;23698;52.014;5.190;2023-05-09T06:47:29;101230.31;;;16.70;100.00
37860;BME280;23698;52.014;5.190;2023-05-09T06:50:16;101224.44;;;16.67;100.00
37860;BME280;23698;52.014;5.190;2023-05-09T06:53:02;101231.91;;;16.53;100.00
37860;BME280;23698;52.014;5.190;2023-05-09T06:55:49;101232.28;;;16.63;100.00
37860;BME280;23698;52.014;5.190;2023-05-09T06:58:35;101221.53;;;16.61;100.00
37860;BME280;23698;52.014;5.190;2023-05-09T07:01:22;101224.69;;;16.33;100.00
37860;BME280;23698;52.014;5.190;2023-05-09T07:04:09;101218.47;;;16.19;100.00
37860;BME280;23698;52.014;5.190;2023-05-09T07:06:55;101219.09;;;16.21;100.00
37860;BME280;23698;52.014;5.190;2023-05-09T07:09:43;101214.44;;;16.29;100.00
37860;BME280;23698;52.014;5.190;2023-05-09T07:12:30;101208.97;;;16.29;100.00
37860;BME280;23698;52.014;5.190;2023-05-09T07:15:16;101213.78;;;16.58;100.00
37860;BME280;23698;52.014;5.190;2023-05-09T07:18:21;101209.63;;;16.24;100.00
37860;BME280;23698;52.014;5.190;2023-05-09T07:21:08;101210.53;;;16.43;100.00
37860;BME280;23698;52.014;5.190;2023-05-09T07:23:55;101197.81;;;16.55;100.00
37860;BME280;23698;52.014;5.190;2023-05-09T07:26:41;101201.53;;;16.36;100.00
37860;BME280;23698;52.014;5.190;2023-05-09T07:29:27;101198.50;;;16.19;100.00
37860;BME280;23698;52.014;5.190;2023-05-09T07:32:14;101203.84;;;16.64;100.00
37860;BME280;23698;52.014;5.190;2023-05-09T07:35:01;101191.97;;;16.20;100.00
37860;BME280;23698;52.014;5.190;2023-05-09T07:37:49;101197.78;;;16.30;100.00
37860;BME280;23698;52.014;5.190;2023-05-09T07:40:35;101194.84;;;16.82;100.00
37860;BME280;23698;52.014;5.190;2023-05-09T07:43:22;101189.28;;;16.95;100.00
37860;BME280;23698;52.014;5.190;2023-05-09T07:46:09;101187.44;;;16.89;100.00
37860;BME280;23698;52.014;5.190;2023-05-09T07:48:56;101183.94;;;16.75;100.00
37860;BME280;23698;52.014;5.190;2023-05-09T07:51:42;101189.03;;;16.47;100.00
37860;BME280;23698;52.014;5.190;2023-05-09T07:54:30;101181.41;;;16.55;100.00
37860;BME280;23698;52.014;5.190;2023-05-09T07:57:16;101177.19;;;16.28;100.00
37860;BME280;23698;52.014;5.190;2023-05-09T08:00:03;101180.63;;;16.48;100.00
37860;BME280;23698;52.014;5.190;2023-05-09T08:02:57;101171.72;;;16.28;100.00
37860;BME280;23698;52.014;5.190;2023-05-09T08:05:44;101169.69;;;16.67;100.00
37860;BME280;23698;52.014;5.190;2023-05-09T08:08:31;101164.44;;;16.65;100.00
37860;BME280;23698;52.014;5.190;2023-05-09T08:11:18;101147.22;;;16.90;100.00
37860;BME280;23698;52.014;5.190;2023-05-09T08:14:05;101152.91;;;16.63;100.00
37860;BME280;23698;52.014;5.190;2023-05-09T08:16:52;101148.09;;;16.84;100.00
37860;BME280;23698;52.014;5.190;2023-05-09T08:19:38;101149.09;;;16.89;100.00
37860;BME280;23698;52.014;5.190;2023-05-09T08:22:25;101139.97;;;17.14;100.00
37860;BME280;23698;52.014;5.190;2023-05-09T08:25:11;101136.09;;;16.34;100.00
37860;BME280;23698;52.014;5.190;2023-05-09T08:28:01;101134.75;;;16.18;100.00
37860;BME280;23698;52.014;5.190;2023-05-09T08:30:47;101131.22;;;16.61;100.00
37860;BME280;23698;52.014;5.190;2023-05-09T08:33:34;101124.47;;;16.83;100.00
37860;BME280;23698;52.014;5.190;2023-05-09T08:36:21;101120.72;;;16.84;100.00
37860;BME280;23698;52.014;5.190;2023-05-09T08:39:07;101122.84;;;16.56;100.00
37860;BME280;23698;52.014;5.190;2023-05-09T08:41:58;101115.88;;;16.35;100.00
37860;BME280;23698;52.014;5.190;2023-05-09T08:44:45;101126.44;;;16.32;100.00
37860;BME280;23698;52.014;5.190;2023-05-09T08:47:33;101127.38;;;16.69;100.00
37860;BME280;23698;52.014;5.190;2023-05-09T08:50:21;101115.56;;;16.50;100.00
37860;BME280;23698;52.014;5.190;2023-05-09T08:53:08;101113.63;;;16.51;100.00
37860;BME280;23698;52.014;5.190;2023-05-09T08:55:54;101114.66;;;16.31;100.00
37860;BME280;23698;52.014;5.190;2023-05-09T08:58:41;101114.41;;;16.58;100.00
37860;BME280;23698;52.014;5.190;2023-05-09T09:01:29;101105.16;;;16.59;100.00
37860;BME280;23698;52.014;5.190;2023-05-09T09:04:18;101098.16;;;16.63;100.00
37860;BME280;23698;52.014;5.190;2023-05-09T09:07:05;101100.19;;;16.24;100.00
37860;BME280;23698;52.014;5.190;2023-05-09T09:09:52;101099.59;;;16.91;100.00
37860;BME280;23698;52.014;5.190;2023-05-09T09:12:40;101093.59;;;16.57;100.00
37860;BME280;23698;52.014;5.190;2023-05-09T09:15:33;101097.91;;;15.96;100.00
37860;BME280;23698;52.014;5.190;2023-05-09T09:18:23;101100.09;;;16.37;100.00
37860;BME280;23698;52.014;5.190;2023-05-09T09:21:14;101092.34;;;16.34;100.00
37860;BME280;23698;52.014;5.190;2023-05-09T09:24:01;101090.81;;;16.38;100.00
37860;BME280;23698;52.014;5.190;2023-05-09T09:26:49;101088.22;;;16.25;100.00
37860;BME280;23698;52.014;5.190;2023-05-09T09:29:36;101080.47;;;16.66;100.00
37860;BME280;23698;52.014;5.190;2023-05-09T09:32:31;101076.19;;;16.70;100.00
37860;BME280;23698;52.014;5.190;2023-05-09T09:35:19;101077.69;;;16.47;100.00
37860;BME280;23698;52.014;5.190;2023-05-09T09:38:05;101076.09;;;16.58;100.00
37860;BME280;23698;52.014;5.190;2023-05-09T09:40:52;101070.88;;;17.12;100.00
37860;BME280;23698;52.014;5.190;2023-05-09T09:43:44;101072.81;;;17.11;100.00
37860;BME280;23698;52.014;5.190;2023-05-09T09:46:39;101069.91;;;17.06;100.00
37860;BME280;23698;52.014;5.190;2023-05-09T09:49:26;101068.03;;;16.63;100.00
37860;BME280;23698;52.014;5.190;2023-05-09T09:52:21;101071.69;;;17.01;100.00
37860;BME280;23698;52.014;5.190;2023-05-09T09:55:08;101073.75;;;16.61;100.00
37860;BME280;23698;52.014;5.190;2023-05-09T09:57:55;101070.81;;;17.00;100.00
37860;BME280;23698;52.014;5.190;2023-05-09T10:00:43;101063.66;;;16.62;100.00
37860;BME280;23698;52.014;5.190;2023-05-09T10:03:34;101057.47;;;16.67;100.00
37860;BME280;23698;52.014;5.190;2023-05-09T10:06:21;101059.22;;;16.86;100.00
37860;BME280;23698;52.014;5.190;2023-05-09T10:09:08;101061.19;;;16.54;100.00
37860;BME280;23698;52.014;5.190;2023-05-09T10:11:55;101060.44;;;16.47;100.00
37860;BME280;23698;52.014;5.190;2023-05-09T10:14:43;101055.84;;;16.22;100.00
37860;BME280;23698;52.014;5.190;2023-05-09T13:28:06;100914.41;;;16.04;100.00
37860;BME280;23698;52.014;5.190;2023-05-09T13:30:52;100911.81;;;15.91;100.00
37860;BME280;23698;52.014;5.190;2023-05-09T13:33:39;100906.19;;;15.85;100.00
37860;BME280;23698;52.014;5.190;2023-05-09T13:36:26;100903.34;;;15.99;100.00
37860;BME280;23698;52.014;5.190;2023-05-09T13:39:12;100908.78;;;15.80;100.00
37860;BME280;23698;52.014;5.190;2023-05-09T13:41:59;100904.50;;;15.84;100.00
37860;BME280;23698;52.014;5.190;2023-05-09T13:44:47;100904.66;;;15.90;100.00
37860;BME280;23698;52.014;5.190;2023-05-09T13:47:33;100900.03;;;15.65;100.00
37860;BME280;23698;52.014;5.190;2023-05-09T13:50:22;100906.59;;;15.64;100.00
37860;BME280;23698;52.014;5.190;2023-05-09T13:53:09;100893.56;;;15.84;100.00
37860;BME280;23698;52.014;5.190;2023-05-09T13:55:55;100900.59;;;15.99;100.00
37860;BME280;23698;52.014;5.190;2023-05-09T13:58:41;100894.81;;;15.89;100.00
37860;BME280;23698;52.014;5.190;2023-05-09T14:01:29;100891.63;;;16.10;100.00
37860;BME280;23698;52.014;5.190;2023-05-09T14:04:16;100886.06;;;15.98;100.00
37860;BME280;23698;52.014;5.190;2023-05-09T14:10:12;100873.34;;;15.92;100.00
37860;BME280;23698;52.014;5.190;2023-05-09T14:13:00;100862.94;;;16.01;100.00
37860;BME280;23698;52.014;5.190;2023-05-09T14:15:47;100876.56;;;15.82;100.00
37860;BME280;23698;52.014;5.190;2023-05-09T14:18:35;100869.44;;;15.81;100.00
37860;BME280;23698;52.014;5.190;2023-05-09T14:21:21;100862.78;;;15.96;100.00
37860;BME280;23698;52.014;5.190;2023-05-09T14:24:08;100856.53;;;16.07;100.00
37860;BME280;23698;52.014;5.190;2023-05-09T14:26:55;100848.03;;;16.34;100.00
37860;BME280;23698;52.014;5.190;2023-05-09T14:29:41;100850.16;;;16.13;100.00
37860;BME280;23698;52.014;5.190;2023-05-09T14:32:28;100844.72;;;15.70;100.00
37860;BME280;23698;52.014;5.190;2023-05-09T14:35:16;100849.56;;;15.93;100.00
37860;BME280;23698;52.014;5.190;2023-05-09T14:38:03;100831.41;;;15.98;100.00
37860;BME280;23698;52.014;5.190;2023-05-09T14:40:49;100837.25;;;16.02;100.00
37860;BME280;23698;52.014;5.190;2023-05-09T14:43:35;100825.09;;;16.16;100.00
37860;BME280;23698;52.014;5.190;2023-05-09T14:46:21;100822.91;;;16.07;100.00
37860;BME280;23698;52.014;5.190;2023-05-09T14:49:09;100820.69;;;15.78;100.00
37860;BME280;23698;52.014;5.190;2023-05-09T14:51:56;100817.53;;;15.81;100.00
37860;BME280;23698;52.014;5.190;2023-05-09T14:54:43;100820.84;;;15.83;100.00
37860;BME280;23698;52.014;5.190;2023-05-09T14:57:29;100814.66;;;15.70;100.00
37860;BME280;23698;52.014;5.190;2023-05-09T15:47:59;100806.44;;;15.51;100.00
37860;BME280;23698;52.014;5.190;2023-05-09T15:50:46;100801.19;;;15.49;100.00
37860;BME280;23698;52.014;5.190;2023-05-09T15:56:52;100800.81;;;15.46;100.00
37860;BME280;23698;52.014;5.190;2023-05-09T15:59:38;100794.56;;;15.64;100.00
37860;BME280;23698;52.014;5.190;2023-05-09T16:02:26;100786.91;;;15.29;100.00
37860;BME280;23698;52.014;5.190;2023-05-09T16:05:17;100780.25;;;15.18;100.00
37860;BME280;23698;52.014;5.190;2023-05-09T16:08:03;100772.41;;;15.28;100.00
37860;BME280;23698;52.014;5.190;2023-05-09T16:10:50;100766.81;;;15.42;100.00
37860;BME280;23698;52.014;5.190;2023-05-09T16:13:36;100771.13;;;15.49;100.00
37860;BME280;23698;52.014;5.190;2023-05-09T16:16:25;100760.59;;;15.35;100.00
37860;BME280;23698;52.014;5.190;2023-05-09T16:19:12;100755.91;;;15.42;100.00
37860;BME280;23698;52.014;5.190;2023-05-09T16:21:59;100751.94;;;15.38;100.00
37860;BME280;23698;52.014;5.190;2023-05-09T16:24:47;100755.06;;;15.60;100.00
37860;BME280;23698;52.014;5.190;2023-05-09T16:27:36;100748.25;;;15.51;100.00
37860;BME280;23698;52.014;5.190;2023-05-09T16:30:27;100736.94;;;15.47;100.00
37860;BME280;23698;52.014;5.190;2023-05-09T16:33:13;100733.44;;;15.40;100.00
37860;BME280;23698;52.014;5.190;2023-05-09T16:36:03;100727.66;;;15.29;100.00
37860;BME280;23698;52.014;5.190;2023-05-09T16:38:51;100732.28;;;15.47;100.00
37860;BME280;23698;52.014;5.190;2023-05-09T16:41:37;100729.78;;;15.27;100.00
37860;BME280;23698;52.014;5.190;2023-05-09T16:44:24;100726.63;;;15.67;100.00
37860;BME280;23698;52.014;5.190;2023-05-09T16:47:10;100716.06;;;15.34;100.00
37860;BME280;23698;52.014;5.190;2023-05-09T16:49:57;100716.59;;;15.61;100.00
37860;BME280;23698;52.014;5.190;2023-05-09T16:52:43;100710.16;;;15.56;100.00
37860;BME280;23698;52.014;5.190;2023-05-09T16:55:31;100700.22;;;15.43;100.00
37860;BME280;23698;52.014;5.190;2023-05-09T16:58:17;100702.91;;;15.61;100.00
37860;BME280;23698;52.014;5.190;2023-05-09T17:01:04;100697.31;;;15.19;100.00
37860;BME280;23698;52.014;5.190;2023-05-09T17:03:50;100697.00;;;15.64;100.00
37860;BME280;23698;52.014;5.190;2023-05-09T17:06:39;100696.09;;;15.34;100.00
37860;BME280;23698;52.014;5.190;2023-05-09T17:09:26;100700.75;;;15.52;100.00
37860;BME280;23698;52.014;5.190;2023-05-09T17:12:13;100692.75;;;15.32;100.00
37860;BME280;23698;52.014;5.190;2023-05-09T17:15:03;100702.03;;;15.49;100.00
37860;BME280;23698;52.014;5.190;2023-05-09T17:17:49;100699.91;;;15.33;100.00
37860;BME280;23698;52.014;5.190;2023-05-09T17:20:36;100698.75;;;15.40;100.00
37860;BME280;23698;52.014;5.190;2023-05-09T17:23:23;100687.06;;;15.33;100.00
37860;BME280;23698;52.014;5.190;2023-05-09T17:26:11;100691.03;;;15.56;100.00
37860;BME280;23698;52.014;5.190;2023-05-09T17:28:59;100682.66;;;15.51;100.00
37860;BME280;23698;52.014;5.190;2023-05-09T17:31:47;100683.34;;;15.64;100.00
37860;BME280;23698;52.014;5.190;2023-05-09T17:34:34;100682.00;;;15.55;100.00
37860;BME280;23698;52.014;5.190;2023-05-09T17:37:20;100679.56;;;15.47;100.00
37860;BME280;23698;52.014;5.190;2023-05-09T17:40:07;100683.13;;;15.47;100.00
37860;BME280;23698;52.014;5.190;2023-05-09T17:42:54;100674.31;;;15.45;100.00
37860;BME280;23698;52.014;5.190;2023-05-09T17:45:42;100676.66;;;15.23;100.00
37860;BME280;23698;52.014;5.190;2023-05-09T17:48:29;100681.63;;;15.52;100.00
37860;BME280;23698;52.014;5.190;2023-05-09T17:51:16;100663.38;;;15.82;100.00
37860;BME280;23698;52.014;5.190;2023-05-09T17:54:02;100651.63;;;15.82;100.00
37860;BME280;23698;52.014;5.190;2023-05-09T17:56:50;100647.00;;;15.45;100.00
37860;BME280;23698;52.014;5.190;2023-05-09T17:59:43;100660.13;;;15.18;100.00
37860;BME280;23698;52.014;5.190;2023-05-09T18:02:33;100660.50;;;15.22;100.00
37860;BME280;23698;52.014;5.190;2023-05-09T18:05:20;100656.72;;;15.41;100.00
37860;BME280;23698;52.014;5.190;2023-05-09T18:08:08;100648.88;;;15.82;100.00
37860;BME280;23698;52.014;5.190;2023-05-09T18:10:55;100646.00;;;15.77;100.00
37860;BME280;23698;52.014;5.190;2023-05-09T18:13:41;100638.63;;;15.77;100.00
37860;BME280;23698;52.014;5.190;2023-05-09T18:16:27;100635.13;;;15.70;100.00
37860;BME280;23698;52.014;5.190;2023-05-09T18:19:15;100628.41;;;16.03;100.00
37860;BME280;23698;52.014;5.190;2023-05-09T18:22:02;100614.22;;;15.94;100.00
37860;BME280;23698;52.014;5.190;2023-05-09T18:24:48;100618.44;;;15.60;100.00
37860;BME280;23698;52.014;5.190;2023-05-09T18:27:35;100617.63;;;15.78;100.00
37860;BME280;23698;52.014;5.190;2023-05-09T18:30:21;100620.81;;;15.56;100.00
37860;BME280;23698;52.014;5.190;2023-05-09T18:33:07;100628.94;;;15.44;100.00
37860;BME280;23698;52.014;5.190;2023-05-09T18:35:55;100632.13;;;15.78;100.00
37860;BME280;23698;52.014;5.190;2023-05-09T18:38:42;100628.47;;;15.47;100.00
37860;BME280;23698;52.014;5.190;2023-05-09T18:41:28;100630.81;;;15.81;100.00
37860;BME280;23698;52.014;5.190;2023-05-09T18:44:15;100618.72;;;15.40;100.00
37860;BME280;23698;52.014;5.190;2023-05-09T18:47:05;100627.22;;;15.50;100.00
37860;BME280;23698;52.014;5.190;2023-05-09T18:49:52;100638.97;;;15.32;100.00
37860;BME280;23698;52.014;5.190;2023-05-09T18:52:40;100640.94;;;15.25;100.00
37860;BME280;23698;52.014;5.190;2023-05-09T18:55:29;100630.34;;;15.65;100.00
37860;BME280;23698;52.014;5.190;2023-05-09T18:58:16;100631.16;;;16.15;100.00
37860;BME280;23698;52.014;5.190;2023-05-09T19:46:19;100646.53;;;14.93;100.00
37860;BME280;23698;52.014;5.190;2023-05-09T19:49:07;100647.16;;;14.95;100.00
37860;BME280;23698;52.014;5.190;2023-05-09T19:51:53;100659.13;;;14.94;100.00
37860;BME280;23698;52.014;5.190;2023-05-09T19:54:40;100648.66;;;15.09;100.00
37860;BME280;23698;52.014;5.190;2023-05-09T19:57:27;100654.78;;;14.86;100.00
37860;BME280;23698;52.014;5.190;2023-05-09T22:03:11;100610.63;;;15.82;100.00
37860;BME280;23698;52.014;5.190;2023-05-09T22:05:58;100611.00;;;15.85;100.00
37860;BME280;23698;52.014;5.190;2023-05-09T22:08:44;100613.03;;;15.72;100.00
37860;BME280;23698;52.014;5.190;2023-05-09T22:11:30;100608.84;;;15.39;100.00
37860;BME280;23698;52.014;5.190;2023-05-09T22:14:17;100610.28;;;15.41;100.00
